sensor_id;sensor_type;location;lat;lon;timestamp;P1;durP1;ratioP1;P2;durP2;ratioP2
7181;SDS011;3632;42.724;23.298;2024-02-26T00:01:12;38.23;;;31.27;;
7181;SDS011;3632;42.724;23.298;2024-02-26T00:03:39;40.27;;;30.40;;
7181;SDS011;3632;42.724;23.298;2024-02-26T00:06:07;41.53;;;30.60;;
7181;SDS011;3632;42.724;23.298;2024-02-26T00:08:34;41.07;;;28.73;;
7181;SDS011;3632;42.724;23.298;2024-02-26T00:11:00;36.33;;;26.13;;
7181;SDS011;3632;42.724;23.298;2024-02-26T00:13:27;32.73;;;26.30;;
7181;SDS011;3632;42.724;23.298;2024-02-26T00:15:54;28.37;;;22.20;;
7181;SDS011;3632;42.724;23.298;2024-02-26T00:18:22;32.37;;;24.27;;
7181;SDS011;3632;42.724;23.298;2024-02-26T00:20:48;34.37;;;25.83;;
7181;SDS011;3632;42.724;23.298;2024-02-26T00:23:15;33.17;;;25.90;;
7181;SDS011;3632;42.724;23.298;2024-02-26T00:25:42;30.97;;;25.43;;
7181;SDS011;3632;42.724;23.298;2024-02-26T00:28:09;33.07;;;25.53;;
7181;SDS011;3632;42.724;23.298;2024-02-26T00:30:38;36.27;;;27.47;;
7181;SDS011;3632;42.724;23.298;2024-02-26T00:33:05;38.70;;;26.83;;
7181;SDS011;3632;42.724;23.298;2024-02-26T00:35:33;39.87;;;28.07;;
7181;SDS011;3632;42.724;23.298;2024-02-26T00:38:00;36.83;;;28.43;;
7181;SDS011;3632;42.724;23.298;2024-02-26T00:40:28;37.27;;;27.73;;
7181;SDS011;3632;42.724;23.298;2024-02-26T00:42:55;33.70;;;26.47;;
7181;SDS011;3632;42.724;23.298;2024-02-26T00:45:21;36.60;;;26.23;;
7181;SDS011;3632;42.724;23.298;2024-02-26T00:47:48;39.73;;;28.63;;
7181;SDS011;3632;42.724;23.298;2024-02-26T00:50:15;38.77;;;26.50;;
7181;SDS011;3632;42.724;23.298;2024-02-26T00:52:43;38.33;;;26.47;;
7181;SDS011;3632;42.724;23.298;2024-02-26T00:55:09;37.17;;;25.70;;
7181;SDS011;3632;42.724;23.298;2024-02-26T00:57:36;35.37;;;25.87;;
7181;SDS011;3632;42.724;23.298;2024-02-26T01:00:04;34.03;;;24.57;;
7181;SDS011;3632;42.724;23.298;2024-02-26T01:02:33;33.17;;;25.17;;
7181;SDS011;3632;42.724;23.298;2024-02-26T01:05:00;34.17;;;25.43;;
7181;SDS011;3632;42.724;23.298;2024-02-26T01:07:28;32.13;;;24.30;;
7181;SDS011;3632;42.724;23.298;2024-02-26T01:09:59;28.13;;;22.17;;
7181;SDS011;3632;42.724;23.298;2024-02-26T01:12:26;28.63;;;23.23;;
7181;SDS011;3632;42.724;23.298;2024-02-26T01:14:53;28.63;;;21.33;;
7181;SDS011;3632;42.724;23.298;2024-02-26T01:17:19;30.60;;;20.80;;
7181;SDS011;3632;42.724;23.298;2024-02-26T01:19:46;28.70;;;19.83;;
7181;SDS011;3632;42.724;23.298;2024-02-26T01:22:13;25.90;;;19.13;;
7181;SDS011;3632;42.724;23.298;2024-02-26T01:24:40;29.40;;;20.20;;
7181;SDS011;3632;42.724;23.298;2024-02-26T01:27:08;26.90;;;19.30;;
7181;SDS011;3632;42.724;23.298;2024-02-26T01:29:35;26.13;;;19.53;;
7181;SDS011;3632;42.724;23.298;2024-02-26T01:32:02;27.33;;;20.17;;
7181;SDS011;3632;42.724;23.298;2024-02-26T01:34:30;25.63;;;19.93;;
7181;SDS011;3632;42.724;23.298;2024-02-26T01:36:56;27.73;;;19.83;;
7181;SDS011;3632;42.724;23.298;2024-02-26T01:39:23;27.07;;;21.30;;
7181;SDS011;3632;42.724;23.298;2024-02-26T01:41:50;24.60;;;19.97;;
7181;SDS011;3632;42.724;23.298;2024-02-26T01:44:18;26.00;;;20.07;;
7181;SDS011;3632;42.724;23.298;2024-02-26T01:46:45;32.03;;;20.40;;
7181;SDS011;3632;42.724;23.298;2024-02-26T01:49:12;25.47;;;20.57;;
7181;SDS011;3632;42.724;23.298;2024-02-26T01:51:39;26.93;;;19.90;;
7181;SDS011;3632;42.724;23.298;2024-02-26T01:54:08;27.97;;;20.70;;
7181;SDS011;3632;42.724;23.298;2024-02-26T01:56:35;26.30;;;19.90;;
7181;SDS011;3632;42.724;23.298;2024-02-26T01:59:04;26.07;;;19.30;;
7181;SDS011;3632;42.724;23.298;2024-02-26T02:01:34;25.53;;;19.60;;
7181;SDS011;3632;42.724;23.298;2024-02-26T02:04:02;25.10;;;20.27;;
7181;SDS011;3632;42.724;23.298;2024-02-26T02:06:29;29.13;;;22.37;;
7181;SDS011;3632;42.724;23.298;2024-02-26T02:08:56;29.30;;;21.83;;
7181;SDS011;3632;42.724;23.298;2024-02-26T02:11:23;29.17;;;22.00;;
7181;SDS011;3632;42.724;23.298;2024-02-26T02:13:50;31.63;;;23.10;;
7181;SDS011;3632;42.724;23.298;2024-02-26T02:16:16;34.73;;;23.17;;
7181;SDS011;3632;42.724;23.298;2024-02-26T02:18:45;33.20;;;23.90;;
7181;SDS011;3632;42.724;23.298;2024-02-26T02:21:13;26.67;;;20.23;;
7181;SDS011;3632;42.724;23.298;2024-02-26T02:23:39;29.13;;;20.07;;
7181;SDS011;3632;42.724;23.298;2024-02-26T02:26:11;26.60;;;20.40;;
7181;SDS011;3632;42.724;23.298;2024-02-26T02:28:38;29.77;;;21.03;;
7181;SDS011;3632;42.724;23.298;2024-02-26T02:31:06;25.87;;;20.77;;
7181;SDS011;3632;42.724;23.298;2024-02-26T02:33:33;28.63;;;21.73;;
7181;SDS011;3632;42.724;23.298;2024-02-26T02:36:00;26.97;;;20.17;;
7181;SDS011;3632;42.724;23.298;2024-02-26T02:38:28;27.70;;;20.70;;
7181;SDS011;3632;42.724;23.298;2024-02-26T02:40:56;27.43;;;20.50;;
7181;SDS011;3632;42.724;23.298;2024-02-26T02:43:23;25.33;;;19.77;;
7181;SDS011;3632;42.724;23.298;2024-02-26T02:45:51;28.40;;;20.63;;
7181;SDS011;3632;42.724;23.298;2024-02-26T02:48:17;27.47;;;21.80;;
7181;SDS011;3632;42.724;23.298;2024-02-26T02:50:44;28.33;;;22.07;;
7181;SDS011;3632;42.724;23.298;2024-02-26T02:53:11;27.57;;;20.97;;
7181;SDS011;3632;42.724;23.298;2024-02-26T02:55:39;29.40;;;22.00;;
7181;SDS011;3632;42.724;23.298;2024-02-26T02:58:06;27.53;;;20.67;;
7181;SDS011;3632;42.724;23.298;2024-02-26T03:00:32;33.77;;;21.00;;
7181;SDS011;3632;42.724;23.298;2024-02-26T03:02:59;29.60;;;21.70;;
7181;SDS011;3632;42.724;23.298;2024-02-26T03:05:26;28.97;;;22.03;;
7181;SDS011;3632;42.724;23.298;2024-02-26T03:07:52;33.57;;;24.07;;
7181;SDS011;3632;42.724;23.298;2024-02-26T03:10:19;37.07;;;29.40;;
7181;SDS011;3632;42.724;23.298;2024-02-26T03:12:47;37.97;;;28.57;;
7181;SDS011;3632;42.724;23.298;2024-02-26T03:15:14;30.13;;;22.43;;
7181;SDS011;3632;42.724;23.298;2024-02-26T03:17:41;28.87;;;21.87;;
7181;SDS011;3632;42.724;23.298;2024-02-26T03:20:08;37.13;;;27.67;;
7181;SDS011;3632;42.724;23.298;2024-02-26T03:22:35;31.50;;;25.00;;
7181;SDS011;3632;42.724;23.298;2024-02-26T03:25:04;28.63;;;23.07;;
7181;SDS011;3632;42.724;23.298;2024-02-26T03:27:32;32.80;;;24.03;;
7181;SDS011;3632;42.724;23.298;2024-02-26T03:30:00;30.47;;;24.47;;
7181;SDS011;3632;42.724;23.298;2024-02-26T03:32:27;30.93;;;23.60;;
7181;SDS011;3632;42.724;23.298;2024-02-26T03:34:53;29.53;;;22.33;;
7181;SDS011;3632;42.724;23.298;2024-02-26T03:37:21;28.73;;;22.60;;
7181;SDS011;3632;42.724;23.298;2024-02-26T03:39:47;28.67;;;21.67;;
7181;SDS011;3632;42.724;23.298;2024-02-26T03:42:14;30.07;;;21.17;;
7181;SDS011;3632;42.724;23.298;2024-02-26T03:44:41;30.17;;;22.17;;
7181;SDS011;3632;42.724;23.298;2024-02-26T03:47:09;29.90;;;22.93;;
7181;SDS011;3632;42.724;23.298;2024-02-26T03:49:36;29.70;;;22.70;;
7181;SDS011;3632;42.724;23.298;2024-02-26T03:52:03;32.50;;;23.70;;
7181;SDS011;3632;42.724;23.298;2024-02-26T03:54:30;26.80;;;21.40;;
7181;SDS011;3632;42.724;23.298;2024-02-26T03:56:56;31.17;;;22.47;;
7181;SDS011;3632;42.724;23.298;2024-02-26T03:59:23;28.43;;;22.73;;
7181;SDS011;3632;42.724;23.298;2024-02-26T04:01:50;28.43;;;22.60;;
7181;SDS011;3632;42.724;23.298;2024-02-26T04:04:18;28.53;;;22.63;;
7181;SDS011;3632;42.724;23.298;2024-02-26T04:06:45;31.33;;;23.27;;
7181;SDS011;3632;42.724;23.298;2024-02-26T04:09:12;30.20;;;22.40;;
7181;SDS011;3632;42.724;23.298;2024-02-26T04:11:39;29.20;;;23.10;;
7181;SDS011;3632;42.724;23.298;2024-02-26T04:14:08;29.20;;;23.27;;
7181;SDS011;3632;42.724;23.298;2024-02-26T04:16:36;30.67;;;23.73;;
7181;SDS011;3632;42.724;23.298;2024-02-26T04:19:03;31.97;;;23.27;;
7181;SDS011;3632;42.724;23.298;2024-02-26T04:21:31;28.37;;;21.40;;
7181;SDS011;3632;42.724;23.298;2024-02-26T04:23:58;35.67;;;22.57;;
7181;SDS011;3632;42.724;23.298;2024-02-26T04:26:26;34.30;;;24.33;;
7181;SDS011;3632;42.724;23.298;2024-02-26T04:28:53;31.87;;;24.20;;
7181;SDS011;3632;42.724;23.298;2024-02-26T04:31:20;32.00;;;23.77;;
7181;SDS011;3632;42.724;23.298;2024-02-26T04:33:47;32.40;;;23.97;;
7181;SDS011;3632;42.724;23.298;2024-02-26T04:36:13;32.80;;;25.10;;
7181;SDS011;3632;42.724;23.298;2024-02-26T04:38:42;34.70;;;24.27;;
7181;SDS011;3632;42.724;23.298;2024-02-26T04:41:09;32.27;;;23.63;;
7181;SDS011;3632;42.724;23.298;2024-02-26T04:43:36;32.60;;;24.10;;
7181;SDS011;3632;42.724;23.298;2024-02-26T04:46:06;34.83;;;26.60;;
7181;SDS011;3632;42.724;23.298;2024-02-26T04:48:33;33.97;;;26.17;;
7181;SDS011;3632;42.724;23.298;2024-02-26T04:51:00;34.20;;;26.07;;
7181;SDS011;3632;42.724;23.298;2024-02-26T04:53:27;34.30;;;26.93;;
7181;SDS011;3632;42.724;23.298;2024-02-26T04:55:55;35.03;;;25.57;;
7181;SDS011;3632;42.724;23.298;2024-02-26T04:58:22;31.30;;;25.60;;
7181;SDS011;3632;42.724;23.298;2024-02-26T05:00:49;32.40;;;25.57;;
7181;SDS011;3632;42.724;23.298;2024-02-26T05:03:16;33.90;;;25.73;;
7181;SDS011;3632;42.724;23.298;2024-02-26T05:05:43;33.20;;;25.20;;
7181;SDS011;3632;42.724;23.298;2024-02-26T05:08:10;34.73;;;25.10;;
7181;SDS011;3632;42.724;23.298;2024-02-26T05:10:36;35.37;;;25.53;;
7181;SDS011;3632;42.724;23.298;2024-02-26T05:13:07;27.97;;;21.77;;
7181;SDS011;3632;42.724;23.298;2024-02-26T05:15:34;32.97;;;22.03;;
7181;SDS011;3632;42.724;23.298;2024-02-26T05:18:00;25.03;;;20.50;;
7181;SDS011;3632;42.724;23.298;2024-02-26T05:20:27;24.90;;;18.80;;
7181;SDS011;3632;42.724;23.298;2024-02-26T05:22:54;31.20;;;21.80;;
7181;SDS011;3632;42.724;23.298;2024-02-26T05:25:21;28.00;;;20.37;;
7181;SDS011;3632;42.724;23.298;2024-02-26T05:27:47;27.63;;;20.33;;
7181;SDS011;3632;42.724;23.298;2024-02-26T05:30:16;32.13;;;21.27;;
7181;SDS011;3632;42.724;23.298;2024-02-26T05:32:42;30.27;;;22.00;;
7181;SDS011;3632;42.724;23.298;2024-02-26T05:35:09;33.83;;;25.87;;
7181;SDS011;3632;42.724;23.298;2024-02-26T05:37:36;45.53;;;33.30;;
7181;SDS011;3632;42.724;23.298;2024-02-26T05:40:03;156.00;;;83.03;;
7181;SDS011;3632;42.724;23.298;2024-02-26T05:42:30;122.03;;;69.43;;
7181;SDS011;3632;42.724;23.298;2024-02-26T05:44:58;72.57;;;45.33;;
7181;SDS011;3632;42.724;23.298;2024-02-26T05:47:31;63.83;;;40.83;;
7181;SDS011;3632;42.724;23.298;2024-02-26T05:49:58;62.23;;;40.60;;
7181;SDS011;3632;42.724;23.298;2024-02-26T05:52:26;57.67;;;37.03;;
7181;SDS011;3632;42.724;23.298;2024-02-26T05:54:52;44.80;;;31.67;;
7181;SDS011;3632;42.724;23.298;2024-02-26T05:57:19;47.73;;;32.90;;
7181;SDS011;3632;42.724;23.298;2024-02-26T05:59:46;47.27;;;33.13;;
7181;SDS011;3632;42.724;23.298;2024-02-26T06:02:12;46.53;;;32.17;;
7181;SDS011;3632;42.724;23.298;2024-02-26T06:04:41;50.17;;;32.87;;
7181;SDS011;3632;42.724;23.298;2024-02-26T06:07:07;53.83;;;38.40;;
7181;SDS011;3632;42.724;23.298;2024-02-26T06:09:34;58.17;;;40.60;;
7181;SDS011;3632;42.724;23.298;2024-02-26T06:12:01;57.27;;;38.67;;
7181;SDS011;3632;42.724;23.298;2024-02-26T06:14:27;52.70;;;37.30;;
7181;SDS011;3632;42.724;23.298;2024-02-26T06:16:54;52.50;;;37.10;;
7181;SDS011;3632;42.724;23.298;2024-02-26T06:19:21;48.60;;;34.33;;
7181;SDS011;3632;42.724;23.298;2024-02-26T06:21:49;50.60;;;35.20;;
7181;SDS011;3632;42.724;23.298;2024-02-26T06:24:16;55.13;;;36.27;;
7181;SDS011;3632;42.724;23.298;2024-02-26T06:26:42;52.70;;;35.67;;
7181;SDS011;3632;42.724;23.298;2024-02-26T06:29:09;59.73;;;39.67;;
7181;SDS011;3632;42.724;23.298;2024-02-26T06:31:36;61.57;;;39.53;;
7181;SDS011;3632;42.724;23.298;2024-02-26T06:34:03;61.47;;;38.83;;
7181;SDS011;3632;42.724;23.298;2024-02-26T06:36:30;58.77;;;38.27;;
7181;SDS011;3632;42.724;23.298;2024-02-26T06:38:59;45.83;;;34.23;;
7181;SDS011;3632;42.724;23.298;2024-02-26T06:41:26;47.90;;;31.77;;
7181;SDS011;3632;42.724;23.298;2024-02-26T06:43:55;50.00;;;32.60;;
7181;SDS011;3632;42.724;23.298;2024-02-26T06:46:21;43.77;;;30.43;;
7181;SDS011;3632;42.724;23.298;2024-02-26T06:48:51;40.97;;;27.93;;
7181;SDS011;3632;42.724;23.298;2024-02-26T06:51:18;35.37;;;27.17;;
7181;SDS011;3632;42.724;23.298;2024-02-26T06:53:45;37.87;;;26.33;;
7181;SDS011;3632;42.724;23.298;2024-02-26T06:56:13;37.97;;;25.30;;
7181;SDS011;3632;42.724;23.298;2024-02-26T06:58:40;32.07;;;24.60;;
7181;SDS011;3632;42.724;23.298;2024-02-26T07:01:06;36.77;;;24.80;;
7181;SDS011;3632;42.724;23.298;2024-02-26T07:03:33;30.77;;;24.20;;
7181;SDS011;3632;42.724;23.298;2024-02-26T07:06:00;33.30;;;24.57;;
7181;SDS011;3632;42.724;23.298;2024-02-26T07:08:26;31.77;;;23.60;;
7181;SDS011;3632;42.724;23.298;2024-02-26T07:10:53;29.77;;;22.87;;
7181;SDS011;3632;42.724;23.298;2024-02-26T07:13:21;29.10;;;21.33;;
7181;SDS011;3632;42.724;23.298;2024-02-26T07:15:48;27.80;;;21.57;;
7181;SDS011;3632;42.724;23.298;2024-02-26T07:18:15;31.20;;;23.17;;
7181;SDS011;3632;42.724;23.298;2024-02-26T07:20:42;31.40;;;24.20;;
7181;SDS011;3632;42.724;23.298;2024-02-26T07:23:09;32.67;;;24.23;;
7181;SDS011;3632;42.724;23.298;2024-02-26T07:25:35;34.17;;;24.23;;
7181;SDS011;3632;42.724;23.298;2024-02-26T07:28:02;36.50;;;25.23;;
7181;SDS011;3632;42.724;23.298;2024-02-26T07:30:30;32.30;;;24.13;;
7181;SDS011;3632;42.724;23.298;2024-02-26T07:32:57;35.20;;;24.27;;
7181;SDS011;3632;42.724;23.298;2024-02-26T07:35:24;37.03;;;26.50;;
7181;SDS011;3632;42.724;23.298;2024-02-26T07:37:52;38.70;;;30.63;;
7181;SDS011;3632;42.724;23.298;2024-02-26T07:40:19;42.17;;;31.40;;
7181;SDS011;3632;42.724;23.298;2024-02-26T07:42:46;43.60;;;30.80;;
7181;SDS011;3632;42.724;23.298;2024-02-26T07:45:12;42.83;;;30.97;;
7181;SDS011;3632;42.724;23.298;2024-02-26T07:47:42;41.27;;;30.47;;
7181;SDS011;3632;42.724;23.298;2024-02-26T07:50:09;39.23;;;30.10;;
7181;SDS011;3632;42.724;23.298;2024-02-26T07:52:37;38.23;;;29.17;;
7181;SDS011;3632;42.724;23.298;2024-02-26T07:55:04;37.03;;;29.07;;
7181;SDS011;3632;42.724;23.298;2024-02-26T07:57:32;35.53;;;26.57;;
7181;SDS011;3632;42.724;23.298;2024-02-26T07:59:58;38.33;;;26.37;;
7181;SDS011;3632;42.724;23.298;2024-02-26T08:02:25;33.13;;;26.10;;
7181;SDS011;3632;42.724;23.298;2024-02-26T08:04:53;33.30;;;26.80;;
7181;SDS011;3632;42.724;23.298;2024-02-26T08:07:20;33.00;;;23.60;;
7181;SDS011;3632;42.724;23.298;2024-02-26T08:09:47;32.20;;;24.70;;
7181;SDS011;3632;42.724;23.298;2024-02-26T08:12:14;34.50;;;25.17;;
7181;SDS011;3632;42.724;23.298;2024-02-26T08:14:41;33.03;;;24.73;;
7181;SDS011;3632;42.724;23.298;2024-02-26T08:17:09;31.43;;;24.33;;
7181;SDS011;3632;42.724;23.298;2024-02-26T08:19:35;28.87;;;23.57;;
7181;SDS011;3632;42.724;23.298;2024-02-26T08:22:04;31.20;;;23.13;;
7181;SDS011;3632;42.724;23.298;2024-02-26T08:24:30;32.90;;;25.07;;
7181;SDS011;3632;42.724;23.298;2024-02-26T08:26:57;29.00;;;23.00;;
7181;SDS011;3632;42.724;23.298;2024-02-26T08:29:24;30.77;;;23.30;;
7181;SDS011;3632;42.724;23.298;2024-02-26T08:31:50;28.47;;;22.53;;
7181;SDS011;3632;42.724;23.298;2024-02-26T08:34:17;28.87;;;22.27;;
7181;SDS011;3632;42.724;23.298;2024-02-26T08:36:44;32.23;;;22.73;;
7181;SDS011;3632;42.724;23.298;2024-02-26T08:39:12;34.07;;;23.50;;
7181;SDS011;3632;42.724;23.298;2024-02-26T08:41:39;28.10;;;22.43;;
7181;SDS011;3632;42.724;23.298;2024-02-26T08:44:06;32.43;;;23.90;;
7181;SDS011;3632;42.724;23.298;2024-02-26T08:46:32;32.63;;;25.97;;
7181;SDS011;3632;42.724;23.298;2024-02-26T08:48:59;28.77;;;25.03;;
7181;SDS011;3632;42.724;23.298;2024-02-26T08:51:26;28.10;;;21.53;;
7181;SDS011;3632;42.724;23.298;2024-02-26T08:53:53;29.03;;;21.10;;
7181;SDS011;3632;42.724;23.298;2024-02-26T08:56:21;26.97;;;20.97;;
7181;SDS011;3632;42.724;23.298;2024-02-26T08:58:48;25.90;;;20.10;;
7181;SDS011;3632;42.724;23.298;2024-02-26T09:01:18;32.93;;;21.90;;
7181;SDS011;3632;42.724;23.298;2024-02-26T09:03:44;27.17;;;21.83;;
7181;SDS011;3632;42.724;23.298;2024-02-26T09:06:11;31.10;;;21.70;;
7181;SDS011;3632;42.724;23.298;2024-02-26T09:08:40;41.27;;;23.23;;
7181;SDS011;3632;42.724;23.298;2024-02-26T09:11:07;34.20;;;23.47;;
7181;SDS011;3632;42.724;23.298;2024-02-26T09:13:36;36.23;;;24.10;;
7181;SDS011;3632;42.724;23.298;2024-02-26T09:16:03;34.30;;;23.87;;
7181;SDS011;3632;42.724;23.298;2024-02-26T09:18:31;27.17;;;20.97;;
7181;SDS011;3632;42.724;23.298;2024-02-26T09:20:57;30.23;;;22.23;;
7181;SDS011;3632;42.724;23.298;2024-02-26T09:23:24;27.43;;;19.77;;
7181;SDS011;3632;42.724;23.298;2024-02-26T09:25:51;22.43;;;19.33;;
7181;SDS011;3632;42.724;23.298;2024-02-26T09:28:18;23.47;;;19.20;;
7181;SDS011;3632;42.724;23.298;2024-02-26T09:30:46;28.10;;;18.93;;
7181;SDS011;3632;42.724;23.298;2024-02-26T09:33:14;22.20;;;17.17;;
7181;SDS011;3632;42.724;23.298;2024-02-26T09:35:41;21.07;;;16.57;;
7181;SDS011;3632;42.724;23.298;2024-02-26T09:38:07;20.97;;;15.23;;
7181;SDS011;3632;42.724;23.298;2024-02-26T09:40:34;21.53;;;15.23;;
7181;SDS011;3632;42.724;23.298;2024-02-26T09:43:02;19.37;;;14.93;;
7181;SDS011;3632;42.724;23.298;2024-02-26T09:45:32;20.50;;;14.03;;
7181;SDS011;3632;42.724;23.298;2024-02-26T09:48:00;20.13;;;13.13;;
7181;SDS011;3632;42.724;23.298;2024-02-26T09:50:30;18.97;;;11.83;;
7181;SDS011;3632;42.724;23.298;2024-02-26T09:52:58;13.43;;;9.40;;
7181;SDS011;3632;42.724;23.298;2024-02-26T09:55:27;16.10;;;8.70;;
7181;SDS011;3632;42.724;23.298;2024-02-26T09:57:54;13.17;;;8.73;;
7181;SDS011;3632;42.724;23.298;2024-02-26T10:00:22;12.27;;;9.13;;
7181;SDS011;3632;42.724;23.298;2024-02-26T10:02:51;12.60;;;8.43;;
7181;SDS011;3632;42.724;23.298;2024-02-26T10:05:20;11.40;;;7.67;;
7181;SDS011;3632;42.724;23.298;2024-02-26T10:07:47;10.17;;;7.30;;
7181;SDS011;3632;42.724;23.298;2024-02-26T10:10:14;10.97;;;7.50;;
7181;SDS011;3632;42.724;23.298;2024-02-26T10:12:41;7.67;;;6.70;;
7181;SDS011;3632;42.724;23.298;2024-02-26T10:15:08;10.70;;;6.93;;
7181;SDS011;3632;42.724;23.298;2024-02-26T10:17:35;13.50;;;10.53;;
7181;SDS011;3632;42.724;23.298;2024-02-26T10:20:11;11.40;;;7.20;;
7181;SDS011;3632;42.724;23.298;2024-02-26T10:22:41;12.00;;;7.60;;
7181;SDS011;3632;42.724;23.298;2024-02-26T10:25:08;13.50;;;7.70;;
7181;SDS011;3632;42.724;23.298;2024-02-26T10:27:35;10.57;;;7.70;;
7181;SDS011;3632;42.724;23.298;2024-02-26T10:30:02;7.67;;;6.37;;
7181;SDS011;3632;42.724;23.298;2024-02-26T10:32:30;11.63;;;6.90;;
7181;SDS011;3632;42.724;23.298;2024-02-26T10:34:57;8.07;;;6.60;;
7181;SDS011;3632;42.724;23.298;2024-02-26T10:37:24;11.33;;;6.50;;
7181;SDS011;3632;42.724;23.298;2024-02-26T10:39:52;12.70;;;5.57;;
7181;SDS011;3632;42.724;23.298;2024-02-26T10:42:19;10.93;;;6.80;;
7181;SDS011;3632;42.724;23.298;2024-02-26T10:44:46;12.70;;;6.43;;
7181;SDS011;3632;42.724;23.298;2024-02-26T10:47:14;8.33;;;6.47;;
7181;SDS011;3632;42.724;23.298;2024-02-26T10:49:45;7.83;;;6.17;;
7181;SDS011;3632;42.724;23.298;2024-02-26T10:52:12;8.43;;;5.33;;
7181;SDS011;3632;42.724;23.298;2024-02-26T10:54:41;10.23;;;5.57;;
7181;SDS011;3632;42.724;23.298;2024-02-26T10:57:11;10.33;;;6.43;;
7181;SDS011;3632;42.724;23.298;2024-02-26T10:59:38;9.33;;;7.07;;
7181;SDS011;3632;42.724;23.298;2024-02-26T11:02:07;14.67;;;9.00;;
7181;SDS011;3632;42.724;23.298;2024-02-26T11:04:36;8.43;;;5.77;;
7181;SDS011;3632;42.724;23.298;2024-02-26T11:07:04;7.17;;;5.23;;
7181;SDS011;3632;42.724;23.298;2024-02-26T11:09:33;8.70;;;6.73;;
7181;SDS011;3632;42.724;23.298;2024-02-26T11:12:02;10.67;;;6.30;;
7181;SDS011;3632;42.724;23.298;2024-02-26T11:14:34;6.93;;;5.73;;
7181;SDS011;3632;42.724;23.298;2024-02-26T11:17:01;8.77;;;5.40;;
7181;SDS011;3632;42.724;23.298;2024-02-26T11:19:28;8.50;;;5.60;;
7181;SDS011;3632;42.724;23.298;2024-02-26T11:21:59;7.20;;;4.97;;
7181;SDS011;3632;42.724;23.298;2024-02-26T11:24:26;8.87;;;6.90;;
7181;SDS011;3632;42.724;23.298;2024-02-26T11:26:54;5.70;;;5.13;;
7181;SDS011;3632;42.724;23.298;2024-02-26T11:29:25;6.83;;;4.43;;
7181;SDS011;3632;42.724;23.298;2024-02-26T11:32:05;9.83;;;5.07;;
7181;SDS011;3632;42.724;23.298;2024-02-26T11:34:32;5.23;;;4.70;;
7181;SDS011;3632;42.724;23.298;2024-02-26T11:37:08;6.53;;;4.50;;
7181;SDS011;3632;42.724;23.298;2024-02-26T11:39:39;9.83;;;4.80;;
7181;SDS011;3632;42.724;23.298;2024-02-26T11:42:07;6.10;;;4.83;;
7181;SDS011;3632;42.724;23.298;2024-02-26T11:44:36;7.30;;;4.87;;
7181;SDS011;3632;42.724;23.298;2024-02-26T11:47:13;7.57;;;4.97;;
7181;SDS011;3632;42.724;23.298;2024-02-26T11:49:44;9.07;;;6.00;;
7181;SDS011;3632;42.724;23.298;2024-02-26T11:52:12;7.37;;;4.90;;
7181;SDS011;3632;42.724;23.298;2024-02-26T11:54:43;7.60;;;6.00;;
7181;SDS011;3632;42.724;23.298;2024-02-26T11:57:20;8.73;;;6.20;;
7181;SDS011;3632;42.724;23.298;2024-02-26T11:59:51;10.40;;;6.93;;
7181;SDS011;3632;42.724;23.298;2024-02-26T12:05:11;12.87;;;7.53;;
7181;SDS011;3632;42.724;23.298;2024-02-26T12:07:39;7.37;;;5.60;;
7181;SDS011;3632;42.724;23.298;2024-02-26T12:13:02;7.73;;;6.20;;
7181;SDS011;3632;42.724;23.298;2024-02-26T12:15:33;10.27;;;6.57;;
7181;SDS011;3632;42.724;23.298;2024-02-26T12:18:04;6.87;;;5.03;;
7181;SDS011;3632;42.724;23.298;2024-02-26T12:20:33;7.30;;;5.33;;
7181;SDS011;3632;42.724;23.298;2024-02-26T12:23:00;7.40;;;5.47;;
7181;SDS011;3632;42.724;23.298;2024-02-26T12:25:29;12.47;;;5.93;;
7181;SDS011;3632;42.724;23.298;2024-02-26T12:27:56;9.10;;;5.17;;
7181;SDS011;3632;42.724;23.298;2024-02-26T12:30:24;5.43;;;4.60;;
7181;SDS011;3632;42.724;23.298;2024-02-26T12:32:52;6.77;;;5.20;;
7181;SDS011;3632;42.724;23.298;2024-02-26T12:35:23;7.27;;;4.90;;
7181;SDS011;3632;42.724;23.298;2024-02-26T12:37:50;5.67;;;4.13;;
7181;SDS011;3632;42.724;23.298;2024-02-26T12:40:19;6.57;;;4.43;;
7181;SDS011;3632;42.724;23.298;2024-02-26T12:42:47;7.13;;;4.73;;
7181;SDS011;3632;42.724;23.298;2024-02-26T12:45:14;5.07;;;4.33;;
7181;SDS011;3632;42.724;23.298;2024-02-26T12:47:41;7.30;;;4.20;;
7181;SDS011;3632;42.724;23.298;2024-02-26T12:50:09;6.50;;;4.30;;
7181;SDS011;3632;42.724;23.298;2024-02-26T12:52:38;9.63;;;4.90;;
7181;SDS011;3632;42.724;23.298;2024-02-26T12:55:06;6.80;;;4.50;;
7181;SDS011;3632;42.724;23.298;2024-02-26T12:57:34;7.23;;;4.50;;
7181;SDS011;3632;42.724;23.298;2024-02-26T13:00:03;7.30;;;4.33;;
7181;SDS011;3632;42.724;23.298;2024-02-26T13:02:34;7.20;;;4.47;;
7181;SDS011;3632;42.724;23.298;2024-02-26T13:05:02;6.47;;;4.50;;
7181;SDS011;3632;42.724;23.298;2024-02-26T13:07:30;8.80;;;3.90;;
7181;SDS011;3632;42.724;23.298;2024-02-26T13:09:58;6.03;;;4.10;;
7181;SDS011;3632;42.724;23.298;2024-02-26T13:12:25;6.57;;;4.57;;
7181;SDS011;3632;42.724;23.298;2024-02-26T13:14:58;6.40;;;4.03;;
7181;SDS011;3632;42.724;23.298;2024-02-26T13:17:25;6.53;;;4.30;;
7181;SDS011;3632;42.724;23.298;2024-02-26T13:19:53;4.97;;;4.03;;
7181;SDS011;3632;42.724;23.298;2024-02-26T13:22:20;6.87;;;4.00;;
7181;SDS011;3632;42.724;23.298;2024-02-26T13:24:53;6.23;;;4.13;;
7181;SDS011;3632;42.724;23.298;2024-02-26T13:27:22;8.33;;;3.97;;
7181;SDS011;3632;42.724;23.298;2024-02-26T13:29:50;10.57;;;4.83;;
7181;SDS011;3632;42.724;23.298;2024-02-26T13:32:31;6.13;;;4.40;;
7181;SDS011;3632;42.724;23.298;2024-02-26T13:35:05;7.50;;;4.37;;
7181;SDS011;3632;42.724;23.298;2024-02-26T13:37:33;7.23;;;4.13;;
7181;SDS011;3632;42.724;23.298;2024-02-26T13:40:00;7.57;;;4.70;;
7181;SDS011;3632;42.724;23.298;2024-02-26T13:42:32;6.57;;;4.20;;
7181;SDS011;3632;42.724;23.298;2024-02-26T13:44:58;6.93;;;4.40;;
7181;SDS011;3632;42.724;23.298;2024-02-26T13:47:25;5.23;;;3.97;;
7181;SDS011;3632;42.724;23.298;2024-02-26T13:49:52;6.97;;;5.10;;
7181;SDS011;3632;42.724;23.298;2024-02-26T13:52:19;4.87;;;4.10;;
7181;SDS011;3632;42.724;23.298;2024-02-26T13:54:46;6.50;;;4.60;;
7181;SDS011;3632;42.724;23.298;2024-02-26T13:57:13;8.90;;;4.97;;
7181;SDS011;3632;42.724;23.298;2024-02-26T13:59:41;5.00;;;3.90;;
7181;SDS011;3632;42.724;23.298;2024-02-26T14:02:08;6.40;;;3.90;;
7181;SDS011;3632;42.724;23.298;2024-02-26T14:04:35;5.40;;;3.70;;
7181;SDS011;3632;42.724;23.298;2024-02-26T14:07:02;6.80;;;4.33;;
7181;SDS011;3632;42.724;23.298;2024-02-26T14:09:31;7.23;;;3.83;;
7181;SDS011;3632;42.724;23.298;2024-02-26T14:11:59;8.80;;;3.73;;
7181;SDS011;3632;42.724;23.298;2024-02-26T14:14:27;6.47;;;4.20;;
7181;SDS011;3632;42.724;23.298;2024-02-26T14:16:55;7.70;;;4.70;;
7181;SDS011;3632;42.724;23.298;2024-02-26T14:19:22;7.10;;;4.30;;
7181;SDS011;3632;42.724;23.298;2024-02-26T14:21:48;6.67;;;4.97;;
7181;SDS011;3632;42.724;23.298;2024-02-26T14:24:15;7.83;;;4.90;;
7181;SDS011;3632;42.724;23.298;2024-02-26T14:26:42;6.07;;;4.50;;
7181;SDS011;3632;42.724;23.298;2024-02-26T14:29:08;8.87;;;4.00;;
7181;SDS011;3632;42.724;23.298;2024-02-26T14:31:35;8.87;;;4.20;;
7181;SDS011;3632;42.724;23.298;2024-02-26T14:34:03;5.70;;;3.73;;
7181;SDS011;3632;42.724;23.298;2024-02-26T14:36:30;7.70;;;4.20;;
7181;SDS011;3632;42.724;23.298;2024-02-26T14:38:57;5.03;;;3.93;;
7181;SDS011;3632;42.724;23.298;2024-02-26T14:41:23;8.30;;;5.50;;
7181;SDS011;3632;42.724;23.298;2024-02-26T14:43:50;8.40;;;4.17;;
7181;SDS011;3632;42.724;23.298;2024-02-26T14:46:17;6.60;;;4.23;;
7181;SDS011;3632;42.724;23.298;2024-02-26T14:48:43;8.73;;;4.20;;
7181;SDS011;3632;42.724;23.298;2024-02-26T14:51:12;8.63;;;3.77;;